sensor_id;sensor_type;location;lat;lon;timestamp;P1;durP1;ratioP1;P2;durP2;ratioP2
51451;SDS011;37521;52.020;-1.740;2022-08-23T00:02:15;1.88;;;1.63;;
51451;SDS011;37521;52.020;-1.740;2022-08-23T00:04:49;2.08;;;1.65;;
51451;SDS011;37521;52.020;-1.740;2022-08-23T00:07:34;5.85;;;1.70;;
51451;SDS011;37521;52.020;-1.740;2022-08-23T00:10:05;2.67;;;1.70;;
51451;SDS011;37521;52.020;-1.740;2022-08-23T00:12:35;3.20;;;1.58;;
51451;SDS011;37521;52.020;-1.740;2022-08-23T00:15:04;1.52;;;1.42;;
51451;SDS011;37521;52.020;-1.740;2022-08-23T00:17:36;2.55;;;1.63;;
51451;SDS011;37521;52.020;-1.740;2022-08-23T00:20:05;1.50;;;1.33;;
51451;SDS011;37521;52.020;-1.740;2022-08-23T00:22:35;1.55;;;1.45;;
51451;SDS011;37521;52.020;-1.740;2022-08-23T00:25:06;2.53;;;2.10;;
51451;SDS011;37521;52.020;-1.740;2022-08-23T00:27:37;2.47;;;1.52;;
51451;SDS011;37521;52.020;-1.740;2022-08-23T00:30:06;3.85;;;2.45;;
51451;SDS011;37521;52.020;-1.740;2022-08-23T00:32:39;3.10;;;2.40;;
51451;SDS011;37521;52.020;-1.740;2022-08-23T00:35:09;2.60;;;2.10;;
51451;SDS011;37521;52.020;-1.740;2022-08-23T00:37:52;3.50;;;2.60;;
51451;SDS011;37521;52.020;-1.740;2022-08-23T00:40:41;2.88;;;2.25;;
51451;SDS011;37521;52.020;-1.740;2022-08-23T00:43:11;4.18;;;2.67;;
51451;SDS011;37521;52.020;-1.740;2022-08-23T00:46:02;3.28;;;2.33;;
51451;SDS011;37521;52.020;-1.740;2022-08-23T00:48:58;3.10;;;2.17;;
51451;SDS011;37521;52.020;-1.740;2022-08-23T00:51:29;3.67;;;2.08;;
51451;SDS011;37521;52.020;-1.740;2022-08-23T00:54:19;3.53;;;2.58;;
51451;SDS011;37521;52.020;-1.740;2022-08-23T00:56:48;3.10;;;1.80;;
51451;SDS011;37521;52.020;-1.740;2022-08-23T00:59:18;2.90;;;2.00;;
51451;SDS011;37521;52.020;-1.740;2022-08-23T01:01:46;2.47;;;1.88;;
51451;SDS011;37521;52.020;-1.740;2022-08-23T01:04:16;2.90;;;1.73;;
51451;SDS011;37521;52.020;-1.740;2022-08-23T01:06:47;1.92;;;1.42;;
51451;SDS011;37521;52.020;-1.740;2022-08-23T01:09:20;2.00;;;1.60;;
51451;SDS011;37521;52.020;-1.740;2022-08-23T01:11:50;2.45;;;1.90;;
51451;SDS011;37521;52.020;-1.740;2022-08-23T01:14:25;2.63;;;1.42;;
51451;SDS011;37521;52.020;-1.740;2022-08-23T01:16:58;2.65;;;1.85;;
51451;SDS011;37521;52.020;-1.740;2022-08-23T01:19:34;2.53;;;1.77;;
51451;SDS011;37521;52.020;-1.740;2022-08-23T01:22:08;3.08;;;2.28;;
51451;SDS011;37521;52.020;-1.740;2022-08-23T01:24:41;2.03;;;1.63;;
51451;SDS011;37521;52.020;-1.740;2022-08-23T01:27:34;2.85;;;1.88;;
51451;SDS011;37521;52.020;-1.740;2022-08-23T01:30:05;2.13;;;1.85;;
51451;SDS011;37521;52.020;-1.740;2022-08-23T01:32:36;2.83;;;1.63;;
51451;SDS011;37521;52.020;-1.740;2022-08-23T01:35:08;2.65;;;1.95;;
51451;SDS011;37521;52.020;-1.740;2022-08-23T01:37:37;2.53;;;1.48;;
51451;SDS011;37521;52.020;-1.740;2022-08-23T01:40:08;2.67;;;1.52;;
51451;SDS011;37521;52.020;-1.740;2022-08-23T01:42:36;2.13;;;1.70;;
51451;SDS011;37521;52.020;-1.740;2022-08-23T01:45:09;2.22;;;1.95;;
51451;SDS011;37521;52.020;-1.740;2022-08-23T01:47:39;2.47;;;1.92;;
51451;SDS011;37521;52.020;-1.740;2022-08-23T01:50:09;1.25;;;1.23;;
51451;SDS011;37521;52.020;-1.740;2022-08-23T01:52:40;2.75;;;1.48;;
51451;SDS011;37521;52.020;-1.740;2022-08-23T01:55:16;1.10;;;1.00;;
51451;SDS011;37521;52.020;-1.740;2022-08-23T01:57:47;1.65;;;1.48;;
51451;SDS011;37521;52.020;-1.740;2022-08-23T02:00:26;1.63;;;1.10;;
51451;SDS011;37521;52.020;-1.740;2022-08-23T02:02:56;1.80;;;1.70;;
51451;SDS011;37521;52.020;-1.740;2022-08-23T02:05:25;1.33;;;1.10;;
51451;SDS011;37521;52.020;-1.740;2022-08-23T02:07:54;2.20;;;1.52;;
51451;SDS011;37521;52.020;-1.740;2022-08-23T02:10:24;2.13;;;1.30;;
51451;SDS011;37521;52.020;-1.740;2022-08-23T02:12:53;3.05;;;1.77;;
51451;SDS011;37521;52.020;-1.740;2022-08-23T02:15:22;1.10;;;0.95;;
51451;SDS011;37521;52.020;-1.740;2022-08-23T02:17:50;1.30;;;1.23;;
51451;SDS011;37521;52.020;-1.740;2022-08-23T02:20:21;1.75;;;1.35;;
51451;SDS011;37521;52.020;-1.740;2022-08-23T02:22:49;1.98;;;1.35;;
51451;SDS011;37521;52.020;-1.740;2022-08-23T02:25:18;2.95;;;1.45;;
51451;SDS011;37521;52.020;-1.740;2022-08-23T02:27:47;3.33;;;1.20;;
51451;SDS011;37521;52.020;-1.740;2022-08-23T02:30:16;1.88;;;1.38;;
51451;SDS011;37521;52.020;-1.740;2022-08-23T02:32:45;2.13;;;1.45;;
51451;SDS011;37521;52.020;-1.740;2022-08-23T02:35:13;3.03;;;1.73;;
51451;SDS011;37521;52.020;-1.740;2022-08-23T02:37:42;3.17;;;1.67;;
51451;SDS011;37521;52.020;-1.740;2022-08-23T02:40:10;2.72;;;1.77;;
51451;SDS011;37521;52.020;-1.740;2022-08-23T02:42:39;2.97;;;1.75;;
51451;SDS011;37521;52.020;-1.740;2022-08-23T02:45:09;1.08;;;0.93;;
51451;SDS011;37521;52.020;-1.740;2022-08-23T02:47:44;2.35;;;1.45;;
51451;SDS011;37521;52.020;-1.740;2022-08-23T02:50:18;1.67;;;1.30;;
51451;SDS011;37521;52.020;-1.740;2022-08-23T02:52:46;2.47;;;1.58;;
51451;SDS011;37521;52.020;-1.740;2022-08-23T02:55:15;2.08;;;0.98;;
51451;SDS011;37521;52.020;-1.740;2022-08-23T02:57:44;1.13;;;1.02;;
51451;SDS011;37521;52.020;-1.740;2022-08-23T03:00:14;1.38;;;1.23;;
51451;SDS011;37521;52.020;-1.740;2022-08-23T03:02:44;1.85;;;0.93;;
51451;SDS011;37521;52.020;-1.740;2022-08-23T03:05:13;1.30;;;1.20;;
51451;SDS011;37521;52.020;-1.740;2022-08-23T03:07:42;1.30;;;1.20;;
51451;SDS011;37521;52.020;-1.740;2022-08-23T03:10:10;1.23;;;1.13;;
51451;SDS011;37521;52.020;-1.740;2022-08-23T03:12:45;1.50;;;0.98;;
51451;SDS011;37521;52.020;-1.740;2022-08-23T03:15:15;1.20;;;1.10;;
51451;SDS011;37521;52.020;-1.740;2022-08-23T03:17:43;1.27;;;1.08;;
51451;SDS011;37521;52.020;-1.740;2022-08-23T03:20:11;0.60;;;0.60;;
51451;SDS011;37521;52.020;-1.740;2022-08-23T03:22:40;0.50;;;0.47;;
51451;SDS011;37521;52.020;-1.740;2022-08-23T03:25:20;0.40;;;0.40;;
51451;SDS011;37521;52.020;-1.740;2022-08-23T03:28:00;0.50;;;0.50;;
51451;SDS011;37521;52.020;-1.740;2022-08-23T03:30:34;1.02;;;0.38;;
51451;SDS011;37521;52.020;-1.740;2022-08-23T03:33:04;0.40;;;0.40;;
51451;SDS011;37521;52.020;-1.740;2022-08-23T03:35:33;0.60;;;0.30;;
51451;SDS011;37521;52.020;-1.740;2022-08-23T03:38:02;0.63;;;0.40;;
51451;SDS011;37521;52.020;-1.740;2022-08-23T03:40:31;0.22;;;0.22;;
51451;SDS011;37521;52.020;-1.740;2022-08-23T03:43:00;0.50;;;0.22;;
51451;SDS011;37521;52.020;-1.740;2022-08-23T03:45:29;0.20;;;0.20;;
51451;SDS011;37521;52.020;-1.740;2022-08-23T03:47:59;0.82;;;0.43;;
51451;SDS011;37521;52.020;-1.740;2022-08-23T03:50:30;0.17;;;0.17;;
51451;SDS011;37521;52.020;-1.740;2022-08-23T03:52:59;1.10;;;0.17;;
51451;SDS011;37521;52.020;-1.740;2022-08-23T03:55:27;0.10;;;0.10;;
51451;SDS011;37521;52.020;-1.740;2022-08-23T03:57:59;0.30;;;0.20;;
51451;SDS011;37521;52.020;-1.740;2022-08-23T04:00:27;0.35;;;0.35;;
51451;SDS011;37521;52.020;-1.740;2022-08-23T04:02:56;0.20;;;0.20;;
51451;SDS011;37521;52.020;-1.740;2022-08-23T04:05:27;0.10;;;0.10;;
51451;SDS011;37521;52.020;-1.740;2022-08-23T04:08:05;0.17;;;0.17;;
51451;SDS011;37521;52.020;-1.740;2022-08-23T04:10:34;0.20;;;0.20;;
51451;SDS011;37521;52.020;-1.740;2022-08-23T04:13:05;0.10;;;0.10;;
51451;SDS011;37521;52.020;-1.740;2022-08-23T04:15:34;0.20;;;0.10;;
51451;SDS011;37521;52.020;-1.740;2022-08-23T04:18:04;0.95;;;0.22;;
51451;SDS011;37521;52.020;-1.740;2022-08-23T04:20:36;0.20;;;0.03;;
51451;SDS011;37521;52.020;-1.740;2022-08-23T04:23:04;0.30;;;0.30;;
51451;SDS011;37521;52.020;-1.740;2022-08-23T04:25:45;0.10;;;0.10;;
51451;SDS011;37521;52.020;-1.740;2022-08-23T04:28:15;0.13;;;0.10;;
51451;SDS011;37521;52.020;-1.740;2022-08-23T04:30:44;0.10;;;0.10;;
51451;SDS011;37521;52.020;-1.740;2022-08-23T04:33:13;0.73;;;0.20;;
51451;SDS011;37521;52.020;-1.740;2022-08-23T04:35:46;2.05;;;0.40;;
51451;SDS011;37521;52.020;-1.740;2022-08-23T04:38:15;0.10;;;0.10;;
51451;SDS011;37521;52.020;-1.740;2022-08-23T04:40:55;0.43;;;0.20;;
51451;SDS011;37521;52.020;-1.740;2022-08-23T04:43:43;0.95;;;0.40;;
51451;SDS011;37521;52.020;-1.740;2022-08-23T04:46:13;0.85;;;0.50;;
51451;SDS011;37521;52.020;-1.740;2022-08-23T04:48:45;0.50;;;0.50;;
51451;SDS011;37521;52.020;-1.740;2022-08-23T04:51:16;0.60;;;0.60;;
51451;SDS011;37521;52.020;-1.740;2022-08-23T04:53:45;0.93;;;0.85;;
51451;SDS011;37521;52.020;-1.740;2022-08-23T04:56:32;0.98;;;0.82;;
51451;SDS011;37521;52.020;-1.740;2022-08-23T04:59:01;0.98;;;0.82;;
51451;SDS011;37521;52.020;-1.740;2022-08-23T05:01:31;1.48;;;0.82;;
51451;SDS011;37521;52.020;-1.740;2022-08-23T05:04:01;1.40;;;0.80;;
51451;SDS011;37521;52.020;-1.740;2022-08-23T05:06:31;0.50;;;0.50;;
51451;SDS011;37521;52.020;-1.740;2022-08-23T05:09:00;1.83;;;0.77;;
51451;SDS011;37521;52.020;-1.740;2022-08-23T05:11:29;0.65;;;0.65;;
51451;SDS011;37521;52.020;-1.740;2022-08-23T05:13:58;1.00;;;0.70;;
51451;SDS011;37521;52.020;-1.740;2022-08-23T05:16:27;5.03;;;1.52;;
51451;SDS011;37521;52.020;-1.740;2022-08-23T05:19:01;1.00;;;0.93;;
51451;SDS011;37521;52.020;-1.740;2022-08-23T05:21:37;0.80;;;0.80;;
51451;SDS011;37521;52.020;-1.740;2022-08-23T05:24:05;1.63;;;1.17;;
51451;SDS011;37521;52.020;-1.740;2022-08-23T05:26:40;0.55;;;0.55;;
51451;SDS011;37521;52.020;-1.740;2022-08-23T05:29:09;1.60;;;1.00;;
51451;SDS011;37521;52.020;-1.740;2022-08-23T05:31:43;1.27;;;0.63;;
51451;SDS011;37521;52.020;-1.740;2022-08-23T05:34:15;2.05;;;0.90;;
51451;SDS011;37521;52.020;-1.740;2022-08-23T05:36:53;0.80;;;0.75;;
51451;SDS011;37521;52.020;-1.740;2022-08-23T05:39:28;1.98;;;1.10;;
51451;SDS011;37521;52.020;-1.740;2022-08-23T05:42:04;1.20;;;0.80;;
51451;SDS011;37521;52.020;-1.740;2022-08-23T05:44:34;1.25;;;1.02;;
51451;SDS011;37521;52.020;-1.740;2022-08-23T05:47:05;1.48;;;1.38;;
51451;SDS011;37521;52.020;-1.740;2022-08-23T05:49:47;1.20;;;0.77;;
51451;SDS011;37521;52.020;-1.740;2022-08-23T05:52:17;1.55;;;1.10;;
51451;SDS011;37521;52.020;-1.740;2022-08-23T05:54:45;1.42;;;1.33;;
51451;SDS011;37521;52.020;-1.740;2022-08-23T05:57:34;1.13;;;0.98;;
51451;SDS011;37521;52.020;-1.740;2022-08-23T06:00:03;1.58;;;1.13;;
51451;SDS011;37521;52.020;-1.740;2022-08-23T06:02:44;1.65;;;0.73;;
51451;SDS011;37521;52.020;-1.740;2022-08-23T06:05:12;1.90;;;0.98;;
51451;SDS011;37521;52.020;-1.740;2022-08-23T06:07:44;1.05;;;0.98;;
51451;SDS011;37521;52.020;-1.740;2022-08-23T06:10:17;2.70;;;1.15;;
51451;SDS011;37521;52.020;-1.740;2022-08-23T06:12:54;1.85;;;0.93;;
51451;SDS011;37521;52.020;-1.740;2022-08-23T06:15:22;1.17;;;1.08;;
51451;SDS011;37521;52.020;-1.740;2022-08-23T06:17:51;2.53;;;1.02;;
51451;SDS011;37521;52.020;-1.740;2022-08-23T06:20:19;1.13;;;0.80;;
51451;SDS011;37521;52.020;-1.740;2022-08-23T06:22:58;1.40;;;1.25;;
51451;SDS011;37521;52.020;-1.740;2022-08-23T06:25:27;1.30;;;1.20;;
51451;SDS011;37521;52.020;-1.740;2022-08-23T06:28:07;2.03;;;0.93;;
51451;SDS011;37521;52.020;-1.740;2022-08-23T06:30:37;2.38;;;1.05;;
51451;SDS011;37521;52.020;-1.740;2022-08-23T06:33:24;0.93;;;0.88;;
51451;SDS011;37521;52.020;-1.740;2022-08-23T06:36:15;1.52;;;1.42;;
51451;SDS011;37521;52.020;-1.740;2022-08-23T06:39:03;2.83;;;1.48;;
51451;SDS011;37521;52.020;-1.740;2022-08-23T06:41:44;4.07;;;1.27;;
51451;SDS011;37521;52.020;-1.740;2022-08-23T06:44:33;1.30;;;1.20;;
51451;SDS011;37521;52.020;-1.740;2022-08-23T06:47:21;1.65;;;1.20;;
51451;SDS011;37521;52.020;-1.740;2022-08-23T06:49:50;1.48;;;1.38;;
51451;SDS011;37521;52.020;-1.740;2022-08-23T06:52:45;0.90;;;0.90;;
51451;SDS011;37521;52.020;-1.740;2022-08-23T06:55:23;1.73;;;1.40;;
51451;SDS011;37521;52.020;-1.740;2022-08-23T06:58:02;3.50;;;1.00;;
51451;SDS011;37521;52.020;-1.740;2022-08-23T07:00:40;1.30;;;1.20;;
51451;SDS011;37521;52.020;-1.740;2022-08-23T07:03:22;3.47;;;1.27;;
51451;SDS011;37521;52.020;-1.740;2022-08-23T07:06:10;2.33;;;0.70;;
51451;SDS011;37521;52.020;-1.740;2022-08-23T07:08:43;1.58;;;1.48;;
51451;SDS011;37521;52.020;-1.740;2022-08-23T07:11:13;3.35;;;1.08;;
51451;SDS011;37521;52.020;-1.740;2022-08-23T07:13:42;2.15;;;1.25;;
51451;SDS011;37521;52.020;-1.740;2022-08-23T07:16:10;2.60;;;1.60;;
51451;SDS011;37521;52.020;-1.740;2022-08-23T07:18:39;1.88;;;1.20;;
51451;SDS011;37521;52.020;-1.740;2022-08-23T07:21:07;1.48;;;1.38;;
51451;SDS011;37521;52.020;-1.740;2022-08-23T07:23:37;0.95;;;0.85;;
51451;SDS011;37521;52.020;-1.740;2022-08-23T07:26:12;1.05;;;1.05;;
51451;SDS011;37521;52.020;-1.740;2022-08-23T07:28:43;1.65;;;1.13;;
51451;SDS011;37521;52.020;-1.740;2022-08-23T07:31:13;2.55;;;1.10;;
51451;SDS011;37521;52.020;-1.740;2022-08-23T07:33:43;3.83;;;1.10;;
51451;SDS011;37521;52.020;-1.740;2022-08-23T07:36:18;0.90;;;0.75;;
51451;SDS011;37521;52.020;-1.740;2022-08-23T07:38:49;2.03;;;1.10;;
51451;SDS011;37521;52.020;-1.740;2022-08-23T07:41:21;2.00;;;1.17;;
51451;SDS011;37521;52.020;-1.740;2022-08-23T07:43:50;1.08;;;0.98;;
51451;SDS011;37521;52.020;-1.740;2022-08-23T07:46:18;1.30;;;1.05;;
51451;SDS011;37521;52.020;-1.740;2022-08-23T07:48:48;3.08;;;1.02;;
51451;SDS011;37521;52.020;-1.740;2022-08-23T07:51:24;1.52;;;1.42;;
51451;SDS011;37521;52.020;-1.740;2022-08-23T07:53:53;4.00;;;1.05;;
51451;SDS011;37521;52.020;-1.740;2022-08-23T07:56:23;2.55;;;1.13;;
51451;SDS011;37521;52.020;-1.740;2022-08-23T07:58:58;2.08;;;1.13;;
51451;SDS011;37521;52.020;-1.740;2022-08-23T08:01:37;1.85;;;1.10;;
51451;SDS011;37521;52.020;-1.740;2022-08-23T08:04:09;1.50;;;1.35;;
51451;SDS011;37521;52.020;-1.740;2022-08-23T08:06:42;2.15;;;1.48;;
51451;SDS011;37521;52.020;-1.740;2022-08-23T08:09:35;1.77;;;1.20;;
51451;SDS011;37521;52.020;-1.740;2022-08-23T08:12:05;1.00;;;0.77;;
51451;SDS011;37521;52.020;-1.740;2022-08-23T08:14:35;2.90;;;1.10;;
51451;SDS011;37521;52.020;-1.740;2022-08-23T08:17:05;2.08;;;1.25;;
51451;SDS011;37521;52.020;-1.740;2022-08-23T08:19:53;2.45;;;1.08;;
51451;SDS011;37521;52.020;-1.740;2022-08-23T08:22:44;2.78;;;0.98;;
51451;SDS011;37521;52.020;-1.740;2022-08-23T08:25:41;1.30;;;0.80;;
51451;SDS011;37521;52.020;-1.740;2022-08-23T08:28:13;1.73;;;1.15;;
51451;SDS011;37521;52.020;-1.740;2022-08-23T08:30:42;1.80;;;0.93;;
51451;SDS011;37521;52.020;-1.740;2022-08-23T08:33:12;3.50;;;1.08;;
51451;SDS011;37521;52.020;-1.740;2022-08-23T08:35:40;1.02;;;0.98;;
51451;SDS011;37521;52.020;-1.740;2022-08-23T08:38:09;3.40;;;1.23;;
51451;SDS011;37521;52.020;-1.740;2022-08-23T08:40:39;1.30;;;1.05;;
51451;SDS011;37521;52.020;-1.740;2022-08-23T08:43:15;3.10;;;2.80;;
51451;SDS011;37521;52.020;-1.740;2022-08-23T08:45:57;0.70;;;0.70;;
51451;SDS011;37521;52.020;-1.740;2022-08-23T08:48:32;4.55;;;0.88;;
51451;SDS011;37521;52.020;-1.740;2022-08-23T08:51:11;1.98;;;0.90;;
51451;SDS011;37521;52.020;-1.740;2022-08-23T08:53:46;1.13;;;1.02;;
51451;SDS011;37521;52.020;-1.740;2022-08-23T08:56:36;1.65;;;1.10;;
51451;SDS011;37521;52.020;-1.740;2022-08-23T08:59:18;4.00;;;0.88;;
51451;SDS011;37521;52.020;-1.740;2022-08-23T09:01:48;0.80;;;0.80;;
51451;SDS011;37521;52.020;-1.740;2022-08-23T09:04:24;1.48;;;1.20;;
51451;SDS011;37521;52.020;-1.740;2022-08-23T09:06:54;1.67;;;0.80;;
51451;SDS011;37521;52.020;-1.740;2022-08-23T09:09:37;1.85;;;0.88;;
51451;SDS011;37521;52.020;-1.740;2022-08-23T09:12:20;0.85;;;0.85;;
51451;SDS011;37521;52.020;-1.740;2022-08-23T09:15:04;2.13;;;0.85;;
51451;SDS011;37521;52.020;-1.740;2022-08-23T09:17:46;2.03;;;1.00;;
51451;SDS011;37521;52.020;-1.740;2022-08-23T09:20:19;1.38;;;0.95;;
51451;SDS011;37521;52.020;-1.740;2022-08-23T09:22:51;1.15;;;0.90;;
51451;SDS011;37521;52.020;-1.740;2022-08-23T09:25:30;1.23;;;0.90;;
51451;SDS011;37521;52.020;-1.740;2022-08-23T09:28:07;1.23;;;0.85;;
51451;SDS011;37521;52.020;-1.740;2022-08-23T09:30:45;1.20;;;0.80;;
51451;SDS011;37521;52.020;-1.740;2022-08-23T09:33:17;0.80;;;0.80;;
51451;SDS011;37521;52.020;-1.740;2022-08-23T09:38:49;1.55;;;0.70;;
51451;SDS011;37521;52.020;-1.740;2022-08-23T09:41:22;1.20;;;0.75;;
51451;SDS011;37521;52.020;-1.740;2022-08-23T09:43:56;1.98;;;0.63;;
51451;SDS011;37521;52.020;-1.740;2022-08-23T09:46:30;1.35;;;0.60;;
51451;SDS011;37521;52.020;-1.740;2022-08-23T09:49:20;0.60;;;0.60;;
51451;SDS011;37521;52.020;-1.740;2022-08-23T09:51:57;1.63;;;0.68;;
51451;SDS011;37521;52.020;-1.740;2022-08-23T09:54:28;1.63;;;0.73;;
51451;SDS011;37521;52.020;-1.740;2022-08-23T09:57:01;4.80;;;0.80;;
51451;SDS011;37521;52.020;-1.740;2022-08-23T09:59:34;1.67;;;1.40;;
51451;SDS011;37521;52.020;-1.740;2022-08-23T10:02:16;1.23;;;1.10;;
51451;SDS011;37521;52.020;-1.740;2022-08-23T10:04:56;0.80;;;0.80;;
51451;SDS011;37521;52.020;-1.740;2022-08-23T10:12:55;0.43;;;0.43;;
51451;SDS011;37521;52.020;-1.740;2022-08-23T10:15:28;0.90;;;0.77;;
51451;SDS011;37521;52.020;-1.740;2022-08-23T10:18:13;0.82;;;0.77;;
51451;SDS011;37521;52.020;-1.740;2022-08-23T10:20:51;1.00;;;0.50;;
51451;SDS011;37521;52.020;-1.740;2022-08-23T10:23:27;1.23;;;0.80;;
51451;SDS011;37521;52.020;-1.740;2022-08-23T10:26:13;0.82;;;0.80;;
51451;SDS011;37521;52.020;-1.740;2022-08-23T10:28:53;0.70;;;0.70;;
51451;SDS011;37521;52.020;-1.740;2022-08-23T10:31:48;1.05;;;0.70;;
51451;SDS011;37521;52.020;-1.740;2022-08-23T10:34:35;1.30;;;0.50;;
51451;SDS011;37521;52.020;-1.740;2022-08-23T10:37:23;2.60;;;0.63;;
51451;SDS011;37521;52.020;-1.740;2022-08-23T10:40:02;1.05;;;0.90;;
51451;SDS011;37521;52.020;-1.740;2022-08-23T10:42:39;0.57;;;0.50;;
51451;SDS011;37521;52.020;-1.740;2022-08-23T10:45:15;1.00;;;0.88;;
51451;SDS011;37521;52.020;-1.740;2022-08-23T10:47:57;1.75;;;0.95;;
51451;SDS011;37521;52.020;-1.740;2022-08-23T10:50:40;2.50;;;0.80;;
51451;SDS011;37521;52.020;-1.740;2022-08-23T10:53:23;0.77;;;0.73;;
51451;SDS011;37521;52.020;-1.740;2022-08-23T10:55:59;0.43;;;0.43;;
51451;SDS011;37521;52.020;-1.740;2022-08-23T10:58:37;0.57;;;0.57;;
51451;SDS011;37521;52.020;-1.740;2022-08-23T11:01:15;0.73;;;0.52;;
51451;SDS011;37521;52.020;-1.740;2022-08-23T11:03:49;0.70;;;0.70;;
51451;SDS011;37521;52.020;-1.740;2022-08-23T11:06:43;0.32;;;0.32;;
51451;SDS011;37521;52.020;-1.740;2022-08-23T11:12:20;0.40;;;0.40;;
51451;SDS011;37521;52.020;-1.740;2022-08-23T11:14:57;0.30;;;0.30;;
51451;SDS011;37521;52.020;-1.740;2022-08-23T11:17:41;1.17;;;0.50;;
51451;SDS011;37521;52.020;-1.740;2022-08-23T11:29:38;0.30;;;0.30;;
51451;SDS011;37521;52.020;-1.740;2022-08-23T11:32:26;2.88;;;0.60;;
51451;SDS011;37521;52.020;-1.740;2022-08-23T11:35:04;0.57;;;0.50;;
51451;SDS011;37521;52.020;-1.740;2022-08-23T11:40:57;0.28;;;0.28;;
51451;SDS011;37521;52.020;-1.740;2022-08-23T11:43:33;0.40;;;0.40;;
51451;SDS011;37521;52.020;-1.740;2022-08-23T11:52:10;0.30;;;0.20;;
51451;SDS011;37521;52.020;-1.740;2022-08-23T11:57:56;0.38;;;0.13;;
51451;SDS011;37521;52.020;-1.740;2022-08-23T12:00:51;0.38;;;0.38;;
51451;SDS011;37521;52.020;-1.740;2022-08-23T12:03:25;0.50;;;0.50;;
51451;SDS011;37521;52.020;-1.740;2022-08-23T12:06:04;1.05;;;0.40;;
51451;SDS011;37521;52.020;-1.740;2022-08-23T12:08:45;0.28;;;0.28;;
51451;SDS011;37521;52.020;-1.740;2022-08-23T12:11:17;0.80;;;0.40;;
51451;SDS011;37521;52.020;-1.740;2022-08-23T12:14:30;0.28;;;0.28;;
51451;SDS011;37521;52.020;-1.740;2022-08-23T12:20:27;1.10;;;0.50;;
51451;SDS011;37521;52.020;-1.740;2022-08-23T12:23:03;0.35;;;0.35;;
51451;SDS011;37521;52.020;-1.740;2022-08-23T12:25:38;1.02;;;0.50;;
51451;SDS011;37521;52.020;-1.740;2022-08-23T12:28:09;0.55;;;0.55;;
51451;SDS011;37521;52.020;-1.740;2022-08-23T12:30:56;0.52;;;0.52;;
51451;SDS011;37521;52.020;-1.740;2022-08-23T12:36:15;0.50;;;0.50;;
51451;SDS011;37521;52.020;-1.740;2022-08-23T12:38:55;0.52;;;0.50;;
51451;SDS011;37521;52.020;-1.740;2022-08-23T12:41:28;0.82;;;0.47;;
51451;SDS011;37521;52.020;-1.740;2022-08-23T12:44:00;0.57;;;0.50;;
51451;SDS011;37521;52.020;-1.740;2022-08-23T12:46:35;0.77;;;0.77;;
51451;SDS011;37521;52.020;-1.740;2022-08-23T12:49:07;0.68;;;0.68;;
51451;SDS011;37521;52.020;-1.740;2022-08-23T12:51:39;0.88;;;0.52;;
51451;SDS011;37521;52.020;-1.740;2022-08-23T12:54:12;1.55;;;0.80;;
51451;SDS011;37521;52.020;-1.740;2022-08-23T12:56:43;1.60;;;0.82;;
51451;SDS011;37521;52.020;-1.740;2022-08-23T12:59:26;3.20;;;0.90;;
51451;SDS011;37521;52.020;-1.740;2022-08-23T13:02:00;1.58;;;0.60;;
51451;SDS011;37521;52.020;-1.740;2022-08-23T13:04:32;1.17;;;0.60;;
51451;SDS011;37521;52.020;-1.740;2022-08-23T13:07:05;0.80;;;0.80;;
51451;SDS011;37521;52.020;-1.740;2022-08-23T13:09:38;0.40;;;0.40;;
51451;SDS011;37521;52.020;-1.740;2022-08-23T13:12:19;0.60;;;0.60;;
51451;SDS011;37521;52.020;-1.740;2022-08-23T13:14:48;0.40;;;0.40;;
51451;SDS011;37521;52.020;-1.740;2022-08-23T13:17:20;0.70;;;0.70;;
51451;SDS011;37521;52.020;-1.740;2022-08-23T13:20:12;0.60;;;0.60;;
51451;SDS011;37521;52.020;-1.740;2022-08-23T13:22:54;0.45;;;0.45;;
51451;SDS011;37521;52.020;-1.740;2022-08-23T13:25:26;0.60;;;0.50;;
51451;SDS011;37521;52.020;-1.740;2022-08-23T13:27:59;0.35;;;0.35;;
51451;SDS011;37521;52.020;-1.740;2022-08-23T13:30:30;0.52;;;0.52;;
51451;SDS011;37521;52.020;-1.740;2022-08-23T13:35:49;0.70;;;0.70;;
51451;SDS011;37521;52.020;-1.740;2022-08-23T13:38:21;0.60;;;0.52;;
51451;SDS011;37521;52.020;-1.740;2022-08-23T13:40:55;0.63;;;0.63;;
51451;SDS011;37521;52.020;-1.740;2022-08-23T13:43:28;0.80;;;0.50;;
51451;SDS011;37521;52.020;-1.740;2022-08-23T13:48:39;0.60;;;0.60;;
51451;SDS011;37521;52.020;-1.740;2022-08-23T13:51:17;1.30;;;0.73;;
51451;SDS011;37521;52.020;-1.740;2022-08-23T13:53:50;0.55;;;0.55;;
51451;SDS011;37521;52.020;-1.740;2022-08-23T13:56:19;0.40;;;0.40;;
51451;SDS011;37521;52.020;-1.740;2022-08-23T13:58:52;1.20;;;0.60;;
51451;SDS011;37521;52.020;-1.740;2022-08-23T14:01:23;0.70;;;0.70;;
51451;SDS011;37521;52.020;-1.740;2022-08-23T14:03:52;0.40;;;0.40;;
51451;SDS011;37521;52.020;-1.740;2022-08-23T14:06:21;0.40;;;0.40;;
51451;SDS011;37521;52.020;-1.740;2022-08-23T14:08:51;1.92;;;0.50;;
51451;SDS011;37521;52.020;-1.740;2022-08-23T14:11:19;0.22;;;0.22;;
51451;SDS011;37521;52.020;-1.740;2022-08-23T14:13:48;0.40;;;0.40;;
51451;SDS011;37521;52.020;-1.740;2022-08-23T14:16:20;0.73;;;0.60;;
51451;SDS011;37521;52.020;-1.740;2022-08-23T14:19:04;0.30;;;0.30;;
51451;SDS011;37521;52.020;-1.740;2022-08-23T14:21:55;0.55;;;0.55;;
51451;SDS011;37521;52.020;-1.740;2022-08-23T14:24:23;1.38;;;0.50;;
51451;SDS011;37521;52.020;-1.740;2022-08-23T14:26:52;0.40;;;0.40;;
51451;SDS011;37521;52.020;-1.740;2022-08-23T14:29:23;0.40;;;0.40;;
51451;SDS011;37521;52.020;-1.740;2022-08-23T14:31:53;0.73;;;0.50;;
51451;SDS011;37521;52.020;-1.740;2022-08-23T14:34:22;0.60;;;0.60;;
51451;SDS011;37521;52.020;-1.740;2022-08-23T14:36:53;0.80;;;0.50;;
51451;SDS011;37521;52.020;-1.740;2022-08-23T14:39:43;0.73;;;0.40;;
51451;SDS011;37521;52.020;-1.740;2022-08-23T14:42:11;0.65;;;0.50;;
51451;SDS011;37521;52.020;-1.740;2022-08-23T14:44:43;0.82;;;0.40;;
51451;SDS011;37521;52.020;-1.740;2022-08-23T14:47:11;0.40;;;0.40;;
51451;SDS011;37521;52.020;-1.740;2022-08-23T14:49:40;1.33;;;0.60;;
51451;SDS011;37521;52.020;-1.740;2022-08-23T14:52:08;1.80;;;0.55;;
51451;SDS011;37521;52.020;-1.740;2022-08-23T14:54:37;1.25;;;0.85;;
51451;SDS011;37521;52.020;-1.740;2022-08-23T14:57:07;0.73;;;0.43;;
51451;SDS011;37521;52.020;-1.740;2022-08-23T14:59:35;0.70;;;0.70;;
51451;SDS011;37521;52.020;-1.740;2022-08-23T15:02:04;0.32;;;0.32;;
51451;SDS011;37521;52.020;-1.740;2022-08-23T15:04:35;0.57;;;0.57;;
51451;SDS011;37521;52.020;-1.740;2022-08-23T15:07:03;0.63;;;0.60;;
51451;SDS011;37521;52.020;-1.740;2022-08-23T15:09:44;1.10;;;0.65;;
51451;SDS011;37521;52.020;-1.740;2022-08-23T15:12:13;1.08;;;0.70;;
51451;SDS011;37521;52.020;-1.740;2022-08-23T15:15:02;0.63;;;0.63;;
51451;SDS011;37521;52.020;-1.740;2022-08-23T15:17:34;1.05;;;0.70;;
51451;SDS011;37521;52.020;-1.740;2022-08-23T15:20:04;1.10;;;0.55;;
51451;SDS011;37521;52.020;-1.740;2022-08-23T15:22:32;0.45;;;0.45;;
51451;SDS011;37521;52.020;-1.740;2022-08-23T15:25:11;0.60;;;0.60;;
51451;SDS011;37521;52.020;-1.740;2022-08-23T15:27:41;0.80;;;0.80;;
51451;SDS011;37521;52.020;-1.740;2022-08-23T15:30:11;2.13;;;0.55;;
51451;SDS011;37521;52.020;-1.740;2022-08-23T15:32:41;1.08;;;0.80;;
51451;SDS011;37521;52.020;-1.740;2022-08-23T15:35:18;0.77;;;0.65;;
51451;SDS011;37521;52.020;-1.740;2022-08-23T15:37:47;0.80;;;0.70;;
51451;SDS011;37521;52.020;-1.740;2022-08-23T15:40:15;0.63;;;0.60;;
51451;SDS011;37521;52.020;-1.740;2022-08-23T15:42:45;0.73;;;0.73;;
51451;SDS011;37521;52.020;-1.740;2022-08-23T15:45:14;0.93;;;0.68;;
51451;SDS011;37521;52.020;-1.740;2022-08-23T15:47:44;1.13;;;1.02;;
51451;SDS011;37521;52.020;-1.740;2022-08-23T15:50:15;2.00;;;0.90;;
51451;SDS011;37521;52.020;-1.740;2022-08-23T15:52:44;1.60;;;0.68;;
51451;SDS011;37521;52.020;-1.740;2022-08-23T15:55:13;1.75;;;0.80;;
51451;SDS011;37521;52.020;-1.740;2022-08-23T15:57:43;1.73;;;0.70;;
51451;SDS011;37521;52.020;-1.740;2022-08-23T16:00:15;3.40;;;0.82;;